Terminal Aerodrome Forecast
Issued by NWS

Home | Current Version | Previous Version | Text Only | Print | Product List | Glossary On
Versions: 1 2 3 4 5 6 7 8 9 10 11 12 13 14 15 16 17 18 19 20 21 22 23 24 25 26 27 28
000
FTUS41 KOKX 161432 AAA
TAFHPN
TAF AMD
KHPN 161432Z 1615/1712 26013G22KT P6SM SCT040 BKN130
     FM162100 27012KT P6SM VCSH BKN035
     FM170000 31009KT P6SM BKN035
     FM170400 32005KT P6SM SCT045
      AMD NOT SKED=

USA.gov is the U.S. government's official web portal to all federal, state and local government web resources and services.